Time;durP1;ratioP1;P1;durP2;ratioP2;P2;SDS_P1;SDS_P2;PMS_P1;PMS_P2;Temp;Humidity;BMP_temperature;BMP_pressure;BME280_temperature;BME280_humidity;BME280_pressure;Samples;Min_cycle;Max_cycle;Signal;HPM_P1;HPM_P2
2022/04/26 03:36:11;;;;;;;7.55;4.63;;;;;;;;;;5079427;28;20086;-67
2022/04/26 03:38:42;;;;;;;9.38;3.88;;;;;;;;;;5071712;28;20028;-65
2022/04/26 03:41:07;;;;;;;9.73;3.78;;;;;;;;;;5081262;28;20031;-67
2022/04/26 03:43:33;;;;;;;4.68;3.05;;;;;;;;;;5081324;28;20028;-69
2022/04/26 03:45:58;;;;;;;5.18;2.90;;;;;;;;;;5080152;28;20012;-71
2022/04/26 03:48:23;;;;;;;8.30;3.17;;;;;;;;;;5080362;28;20031;-70
2022/04/26 03:50:49;;;;;;;6.50;4.15;;;;;;;;;;5080363;28;20031;-69
2022/04/26 03:53:14;;;;;;;7.07;3.67;;;;;;;;;;5079955;28;20043;-66
2022/04/26 03:55:39;;;;;;;5.97;3.42;;;;;;;;;;5069668;28;20043;-72
2022/04/26 03:58:05;;;;;;;6.57;4.05;;;;;;;;;;5065305;28;20086;-67
2022/04/26 04:00:30;;;;;;;8.95;4.68;;;;;;;;;;5073726;28;20081;-67
2022/04/26 04:02:55;;;;;;;5.32;3.60;;;;;;;;;;5068735;28;20031;-67
2022/04/26 04:05:21;;;;;;;3.45;2.60;;;;;;;;;;5070946;28;20044;-66
2022/04/26 04:07:46;;;;;;;6.10;2.65;;;;;;;;;;5074729;28;20038;-69
2022/04/26 04:10:12;;;;;;;3.10;2.40;;;;;;;;;;5080169;28;20095;-68
2022/04/26 04:12:37;;;;;;;4.65;2.88;;;;;;;;;;5080499;28;20040;-66
2022/04/26 04:15:02;;;;;;;5.05;3.03;;;;;;;;;;5080935;28;20070;-72
2022/04/26 04:17:28;;;;;;;6.68;4.22;;;;;;;;;;5080094;28;20038;-67
2022/04/26 04:19:53;;;;;;;6.88;4.18;;;;;;;;;;5080261;28;20059;-69
2022/04/26 04:22:18;;;;;;;7.85;4.38;;;;;;;;;;5078765;28;20784;-73
2022/04/26 04:24:44;;;;;;;8.48;3.92;;;;;;;;;;5081179;28;20024;-68
2022/04/26 04:27:10;;;;;;;8.23;5.53;;;;;;;;;;5072108;28;20972;-69
2022/04/26 04:29:35;;;;;;;5.88;3.70;;;;;;;;;;5076591;28;20023;-69
2022/04/26 04:32:01;;;;;;;5.82;3.38;;;;;;;;;;5080516;28;20346;-66
2022/04/26 04:34:26;;;;;;;6.72;3.50;;;;;;;;;;5062377;28;20141;-66
2022/04/26 04:36:52;;;;;;;4.65;3.00;;;;;;;;;;5079725;28;20019;-66
2022/04/26 04:39:20;;;;;;;5.72;3.38;;;;;;;;;;5078647;28;20443;-72
2022/04/26 04:41:52;;;;;;;4.55;3.65;;;;;;;;;;5076516;28;20020;-65
2022/04/26 04:44:18;;;;;;;5.63;3.10;;;;;;;;;;5079745;28;20042;-65
2022/04/26 04:46:44;;;;;;;6.70;3.70;;;;;;;;;;5079391;28;20400;-70
2022/04/26 04:49:09;;;;;;;5.63;2.97;;;;;;;;;;5079051;28;20020;-69
2022/04/26 04:51:34;;;;;;;8.00;4.13;;;;;;;;;;5079530;28;20059;-69
2022/04/26 04:54:01;;;;;;;7.38;2.95;;;;;;;;;;5079159;28;20039;-74
2022/04/26 04:56:27;;;;;;;3.20;2.10;;;;;;;;;;5078718;28;20533;-66
2022/04/26 04:58:52;;;;;;;5.10;2.35;;;;;;;;;;5078447;28;20027;-67
2022/04/26 05:01:18;;;;;;;3.95;2.08;;;;;;;;;;5078412;28;20103;-67
2022/04/26 05:03:43;;;;;;;3.65;2.90;;;;;;;;;;5079299;28;20035;-70
2022/04/26 05:06:08;;;;;;;8.88;2.85;;;;;;;;;;5058170;28;20753;-68
2022/04/26 05:08:34;;;;;;;4.97;3.20;;;;;;;;;;5058129;28;20028;-67
2022/04/26 05:11:00;;;;;;;5.72;4.00;;;;;;;;;;5060225;28;20113;-72
2022/04/26 05:13:25;;;;;;;6.03;4.13;;;;;;;;;;5059430;28;20089;-66
2022/04/26 05:15:50;;;;;;;7.32;3.67;;;;;;;;;;5059865;28;20447;-67
2022/04/26 05:18:16;;;;;;;5.68;3.70;;;;;;;;;;5060312;28;20446;-67
2022/04/26 05:20:41;;;;;;;6.32;4.05;;;;;;;;;;5059877;28;20104;-66
2022/04/26 05:25:50;;;;;;;7.80;4.57;;;;;;;;;;5058754;28;20039;-69
2022/04/26 05:28:16;;;;;;;9.60;5.55;;;;;;;;;;5059875;28;21059;-66
2022/04/26 05:30:41;;;;;;;8.05;5.20;;;;;;;;;;5059008;28;20075;-74
2022/04/26 05:33:06;;;;;;;6.43;4.47;;;;;;;;;;5059507;28;20028;-70
2022/04/26 05:35:32;;;;;;;5.70;4.03;;;;;;;;;;5060089;28;20124;-70
2022/04/26 05:37:57;;;;;;;7.45;3.58;;;;;;;;;;5060204;28;20017;-67
2022/04/26 05:40:22;;;;;;;5.32;3.38;;;;;;;;;;5060208;28;20041;-67
2022/04/26 05:42:47;;;;;;;11.82;7.05;;;;;;;;;;5058268;28;20029;-66
2022/04/26 05:45:13;;;;;;;12.43;7.07;;;;;;;;;;5058763;28;20103;-72
2022/04/26 05:47:42;;;;;;;9.13;6.13;;;;;;;;;;5060928;28;20017;-66
2022/04/26 05:50:08;;;;;;;8.48;5.18;;;;;;;;;;5060411;28;20025;-66
2022/04/26 05:52:34;;;;;;;7.97;4.85;;;;;;;;;;5062995;28;20046;-72
2022/04/26 05:55:00;;;;;;;6.78;3.28;;;;;;;;;;5063357;28;20020;-68
2022/04/26 05:57:27;;;;;;;5.35;3.67;;;;;;;;;;5064227;28;20027;-67
2022/04/26 05:59:52;;;;;;;4.75;3.33;;;;;;;;;;5064308;28;20427;-66
2022/04/26 06:02:18;;;;;;;6.47;3.50;;;;;;;;;;5063492;28;20036;-65
2022/04/26 06:04:44;;;;;;;6.13;3.45;;;;;;;;;;5070083;28;20051;-71
2022/04/26 06:07:10;;;;;;;4.65;3.10;;;;;;;;;;5083100;28;20028;-69
2022/04/26 06:09:36;;;;;;;7.63;4.00;;;;;;;;;;5083481;28;20028;-71
2022/04/26 06:12:02;;;;;;;5.63;3.47;;;;;;;;;;5069003;28;20580;-66
2022/04/26 06:14:27;;;;;;;6.60;4.00;;;;;;;;;;5082951;28;20040;-67
2022/04/26 06:16:52;;;;;;;3.95;2.80;;;;;;;;;;5082977;28;20496;-70
2022/04/26 06:19:18;;;;;;;4.57;3.30;;;;;;;;;;5064966;28;20023;-67
2022/04/26 06:21:43;;;;;;;7.40;3.38;;;;;;;;;;5083582;28;20066;-67
2022/04/26 06:24:08;;;;;;;8.23;4.53;;;;;;;;;;5083926;28;20031;-66
2022/04/26 06:26:34;;;;;;;5.95;3.50;;;;;;;;;;5083152;28;20036;-71
2022/04/26 06:28:59;;;;;;;7.57;3.92;;;;;;;;;;5082623;28;20032;-74
2022/04/26 06:31:24;;;;;;;6.35;4.35;;;;;;;;;;5082805;28;20031;-69
2022/04/26 06:33:50;;;;;;;10.20;4.40;;;;;;;;;;5083677;28;20059;-66
2022/04/26 06:36:15;;;;;;;4.47;3.42;;;;;;;;;;5083565;28;21147;-75
2022/04/26 06:38:40;;;;;;;9.02;3.53;;;;;;;;;;5083878;28;20031;-70
2022/04/26 06:41:06;;;;;;;6.30;3.30;;;;;;;;;;5083870;28;20099;-68
2022/04/26 06:43:33;;;;;;;8.27;3.42;;;;;;;;;;5084000;28;20435;-68
2022/04/26 06:45:58;;;;;;;6.70;4.13;;;;;;;;;;5083960;28;20020;-67
2022/04/26 06:48:24;;;;;;;8.65;4.95;;;;;;;;;;5083491;28;20459;-67
2022/04/26 06:50:49;;;;;;;8.20;4.07;;;;;;;;;;5083411;28;20095;-74
2022/04/26 06:53:15;;;;;;;7.68;3.58;;;;;;;;;;5082866;28;20036;-67
2022/04/26 06:55:40;;;;;;;12.40;5.78;;;;;;;;;;5082284;28;20089;-74
2022/04/26 06:58:06;;;;;;;5.63;3.00;;;;;;;;;;5081161;28;20020;-68
2022/04/26 07:00:32;;;;;;;4.60;3.03;;;;;;;;;;5082881;28;20020;-67
2022/04/26 07:02:57;;;;;;;9.02;3.90;;;;;;;;;;5064278;28;20446;-70
2022/04/26 07:05:23;;;;;;;8.60;4.38;;;;;;;;;;5081940;28;20059;-67
2022/04/26 07:07:50;;;;;;;6.20;3.38;;;;;;;;;;5083215;28;20016;-71
2022/04/26 07:10:15;;;;;;;6.97;3.13;;;;;;;;;;5082207;28;20024;-70
2022/04/26 07:12:41;;;;;;;6.18;3.67;;;;;;;;;;5081546;28;20089;-68
2022/04/26 07:15:06;;;;;;;5.88;3.10;;;;;;;;;;5081496;28;20028;-71
2022/04/26 07:17:32;;;;;;;2.92;2.03;;;;;;;;;;5082077;28;20023;-68
2022/04/26 07:19:57;;;;;;;3.08;1.92;;;;;;;;;;5081485;28;20023;-74
2022/04/26 07:22:23;;;;;;;2.63;1.75;;;;;;;;;;5081476;28;20035;-67
2022/04/26 07:24:48;;;;;;;3.95;1.40;;;;;;;;;;5081455;28;20031;-73
2022/04/26 07:27:15;;;;;;;2.55;1.13;;;;;;;;;;5081711;28;20442;-67
2022/04/26 07:29:42;;;;;;;4.88;1.92;;;;;;;;;;5081930;28;20099;-67
2022/04/26 07:32:08;;;;;;;3.00;1.50;;;;;;;;;;5080256;28;20020;-70
2022/04/26 07:34:33;;;;;;;5.75;1.73;;;;;;;;;;5081884;28;20037;-73
2022/04/26 07:37:04;;;;;;;2.30;1.15;;;;;;;;;;5081621;28;20080;-68
2022/04/26 07:39:30;;;;;;;2.45;1.35;;;;;;;;;;5080583;28;20020;-74
2022/04/26 07:41:56;;;;;;;2.80;1.08;;;;;;;;;;5082249;28;20035;-68
2022/04/26 07:44:22;;;;;;;3.25;1.20;;;;;;;;;;5083012;28;20032;-69
2022/04/26 07:46:48;;;;;;;2.88;1.02;;;;;;;;;;5081515;28;20054;-70
2022/04/26 07:49:15;;;;;;;1.98;1.10;;;;;;;;;;5082492;28;20031;-67
2022/04/26 07:51:40;;;;;;;2.67;0.88;;;;;;;;;;5081768;28;20020;-74
2022/04/26 07:54:06;;;;;;;1.35;1.00;;;;;;;;;;5080189;28;21839;-69
2022/04/26 07:56:32;;;;;;;2.10;0.70;;;;;;;;;;5080922;28;20082;-68
2022/04/26 07:58:58;;;;;;;1.42;0.60;;;;;;;;;;5079714;28;20020;-69
2022/04/26 08:01:26;;;;;;;1.95;1.15;;;;;;;;;;5081151;28;20070;-71
2022/04/26 08:03:52;;;;;;;1.33;0.60;;;;;;;;;;5081274;28;20760;-71
2022/04/26 08:06:17;;;;;;;0.80;0.60;;;;;;;;;;5081722;28;20489;-71
2022/04/26 08:08:42;;;;;;;1.38;0.70;;;;;;;;;;5063395;28;20044;-72
2022/04/26 08:11:11;;;;;;;1.40;0.82;;;;;;;;;;5081920;28;20063;-68
2022/04/26 08:13:37;;;;;;;0.60;0.57;;;;;;;;;;5081493;28;20448;-67
2022/04/26 08:16:03;;;;;;;2.63;0.63;;;;;;;;;;5081399;28;20030;-68
2022/04/26 08:18:28;;;;;;;3.30;0.50;;;;;;;;;;5081115;28;20077;-69
2022/04/26 08:20:53;;;;;;;1.00;0.55;;;;;;;;;;5080206;28;20327;-69
2022/04/26 08:23:19;;;;;;;3.17;0.80;;;;;;;;;;5080398;28;20351;-74
2022/04/26 08:28:28;;;;;;;2.45;0.60;;;;;;;;;;5080429;28;20051;-69
2022/04/26 08:30:55;;;;;;;0.25;0.25;;;;;;;;;;5080992;28;20506;-67
2022/04/26 08:33:20;;;;;;;0.82;0.50;;;;;;;;;;5081394;28;20036;-69
2022/04/26 08:35:45;;;;;;;1.80;0.52;;;;;;;;;;5081007;28;20352;-68
2022/04/26 08:38:11;;;;;;;0.80;0.50;;;;;;;;;;5080457;28;20023;-69
2022/04/26 08:40:36;;;;;;;0.70;0.50;;;;;;;;;;5080715;28;20093;-71
2022/04/26 08:43:02;;;;;;;2.47;0.30;;;;;;;;;;5079931;28;20023;-67
2022/04/26 08:45:27;;;;;;;0.63;0.40;;;;;;;;;;5080376;28;20668;-73
2022/04/26 08:53:22;;;;;;;0.95;0.35;;;;;;;;;;5079830;28;20047;-71
2022/04/26 08:55:49;;;;;;;4.28;0.40;;;;;;;;;;5080194;28;20020;-70
2022/04/26 08:58:15;;;;;;;0.45;0.38;;;;;;;;;;5080389;28;20040;-70
2022/04/26 09:00:42;;;;;;;0.30;0.30;;;;;;;;;;5081132;28;20016;-69
2022/04/26 09:03:07;;;;;;;0.35;0.35;;;;;;;;;;5079856;28;20141;-68
2022/04/26 09:05:33;;;;;;;0.40;0.40;;;;;;;;;;5080247;28;20115;-68
2022/04/26 09:07:59;;;;;;;0.90;0.65;;;;;;;;;;5080898;28;20477;-75
2022/04/26 09:10:26;;;;;;;1.20;0.60;;;;;;;;;;5079354;28;20028;-74
2022/04/26 09:13:06;;;;;;;3.85;1.20;;;;;;;;;;5063738;28;20048;-69
2022/04/26 09:15:40;;;;;;;2.78;0.40;;;;;;;;;;5081491;28;20774;-70
2022/04/26 09:18:13;;;;;;;2.95;0.70;;;;;;;;;;5081193;28;20039;-70
2022/04/26 09:20:38;;;;;;;2.47;0.45;;;;;;;;;;5081562;28;20100;-71
2022/04/26 09:23:13;;;;;;;0.50;0.50;;;;;;;;;;5080664;28;20393;-72
2022/04/26 09:25:38;;;;;;;1.58;0.60;;;;;;;;;;5081182;28;20499;-70
2022/04/26 09:28:04;;;;;;;2.42;0.75;;;;;;;;;;5085288;28;20024;-70
2022/04/26 09:30:29;;;;;;;0.80;0.45;;;;;;;;;;5085640;28;20041;-78
2022/04/26 09:32:54;;;;;;;2.45;0.80;;;;;;;;;;5084552;28;20032;-73
2022/04/26 09:35:20;;;;;;;0.90;0.50;;;;;;;;;;5085656;28;20056;-72
2022/04/26 09:37:45;;;;;;;1.08;0.60;;;;;;;;;;5085448;28;20027;-78
2022/04/26 09:40:11;;;;;;;2.80;0.73;;;;;;;;;;5084710;28;20032;-71
2022/04/26 09:42:37;;;;;;;1.30;0.60;;;;;;;;;;5085342;28;20020;-70
2022/04/26 09:45:09;;;;;;;2.90;0.60;;;;;;;;;;5084715;28;20158;-70
2022/04/26 09:47:35;;;;;;;6.15;2.92;;;;;;;;;;5083348;28;20425;-74
2022/04/26 09:50:04;;;;;;;3.55;1.83;;;;;;;;;;5084229;28;20040;-69
2022/04/26 09:52:29;;;;;;;;;;;;;;;;;;5084861;28;20398;-70
2022/04/26 09:54:55;;;;;;;1.07;0.80;;;;;;;;;;5085475;28;19915;-71
2022/04/26 09:57:20;;;;;;;3.00;2.75;;;;;;;;;;5085673;28;20097;-70
2022/04/26 09:59:46;;;;;;;9.48;8.57;;;;;;;;;;5084001;28;20093;-71
2022/04/26 10:02:13;;;;;;;3.08;2.38;;;;;;;;;;5083954;28;20107;-73
2022/04/26 10:04:45;;;;;;;2.25;1.65;;;;;;;;;;5084664;28;20075;-70
2022/04/26 10:07:12;;;;;;;2.13;0.85;;;;;;;;;;5085114;28;20110;-70
2022/04/26 10:09:38;;;;;;;0.93;0.50;;;;;;;;;;5084802;28;20457;-69
2022/04/26 10:12:03;;;;;;;0.95;0.70;;;;;;;;;;5083914;28;20032;-74
2022/04/26 10:14:29;;;;;;;0.75;0.50;;;;;;;;;;5083075;28;20364;-70
2022/04/26 10:16:55;;;;;;;1.80;0.88;;;;;;;;;;5083638;28;20024;-70
2022/04/26 10:19:34;;;;;;;1.45;0.70;;;;;;;;;;5084574;28;20040;-70
2022/04/26 10:21:59;;;;;;;;;;;;;;;;;;5084115;28;20019;-72
2022/04/26 10:24:25;;;;;;;1.45;0.70;;;;;;;;;;5084307;28;19919;-72
2022/04/26 10:26:51;;;;;;;1.67;0.70;;;;;;;;;;5083908;28;20071;-73
2022/04/26 10:29:24;;;;;;;1.58;0.50;;;;;;;;;;5083139;28;20023;-69
2022/04/26 10:31:55;;;;;;;1.08;0.80;;;;;;;;;;5083367;28;20355;-75
2022/04/26 10:34:27;;;;;;;1.17;0.70;;;;;;;;;;5083434;28;20036;-73
2022/04/26 10:37:01;;;;;;;1.92;1.10;;;;;;;;;;5082751;28;20423;-72
2022/04/26 10:39:30;;;;;;;1.65;0.80;;;;;;;;;;5083895;28;20035;-70
2022/04/26 10:41:55;;;;;;;1.55;1.00;;;;;;;;;;5082562;28;20028;-75
2022/04/26 10:44:21;;;;;;;1.90;1.00;;;;;;;;;;5083802;28;20100;-74
2022/04/26 10:46:55;;;;;;;5.45;2.83;;;;;;;;;;5083131;28;20036;-69
2022/04/26 10:49:29;;;;;;;2.70;2.00;;;;;;;;;;5083550;28;20032;-70
2022/04/26 10:51:55;;;;;;;3.10;1.80;;;;;;;;;;5082657;28;20043;-70
2022/04/26 10:54:39;;;;;;;5.32;2.38;;;;;;;;;;5083127;28;20078;-70
2022/04/26 10:57:04;;;;;;;2.58;0.90;;;;;;;;;;5082570;28;20034;-76
2022/04/26 10:59:29;;;;;;;1.08;0.70;;;;;;;;;;5083883;28;20024;-72
2022/04/26 11:01:55;;;;;;;1.73;1.42;;;;;;;;;;5083276;28;20039;-70
2022/04/26 11:04:20;;;;;;;3.22;1.23;;;;;;;;;;5082951;28;20058;-75
2022/04/26 11:06:47;;;;;;;3.47;1.23;;;;;;;;;;5084267;28;20028;-70
2022/04/26 11:09:14;;;;;;;4.75;0.75;;;;;;;;;;5082080;28;20081;-70
2022/04/26 11:12:05;;;;;;;3.42;0.95;;;;;;;;;;5083289;28;20059;-75
2022/04/26 11:14:31;;;;;;;0.60;0.60;;;;;;;;;;5079536;28;20118;-74
2022/04/26 11:16:57;;;;;;;1.00;0.55;;;;;;;;;;5084002;28;20107;-72
2022/04/26 11:19:28;;;;;;;2.20;0.63;;;;;;;;;;5083068;28;20024;-68
2022/04/26 11:21:53;;;;;;;1.58;0.77;;;;;;;;;;5084060;28;20020;-70
2022/04/26 11:29:51;;;;;;;2.13;1.20;;;;;;;;;;5082891;28;20039;-71
2022/04/26 11:32:42;;;;;;;1.15;0.70;;;;;;;;;;5081523;28;20424;-73
2022/04/26 11:35:08;;;;;;;3.15;0.93;;;;;;;;;;5082855;28;20042;-69
2022/04/26 11:37:42;;;;;;;3.80;0.75;;;;;;;;;;5083486;28;20027;-71
2022/04/26 11:40:07;;;;;;;2.45;0.70;;;;;;;;;;5083350;28;20427;-75
2022/04/26 11:42:34;;;;;;;1.73;0.88;;;;;;;;;;5082133;28;20038;-73
2022/04/26 11:45:00;;;;;;;15.40;8.10;;;;;;;;;;5081538;28;20028;-70
2022/04/26 11:47:39;;;;;;;5.35;2.60;;;;;;;;;;5082888;28;20112;-76
2022/04/26 11:50:08;;;;;;;2.17;0.95;;;;;;;;;;5081298;28;20116;-74
2022/04/26 11:52:33;;;;;;;1.08;0.90;;;;;;;;;;5082468;28;20077;-70
2022/04/26 11:54:58;;;;;;;2.33;0.80;;;;;;;;;;5081227;28;20436;-70
2022/04/26 11:57:24;;;;;;;0.77;0.50;;;;;;;;;;5082249;28;20016;-69
2022/04/26 11:59:50;;;;;;;1.60;0.60;;;;;;;;;;5063909;28;20016;-72
2022/04/26 12:02:15;;;;;;;2.25;0.65;;;;;;;;;;5080694;28;20020;-76
2022/04/26 12:04:41;;;;;;;2.72;0.60;;;;;;;;;;5064766;28;20152;-71
2022/04/26 12:07:07;;;;;;;1.35;0.60;;;;;;;;;;5081444;28;20023;-71
2022/04/26 12:09:32;;;;;;;0.95;0.32;;;;;;;;;;5081821;28;20039;-71
2022/04/26 12:12:02;;;;;;;2.00;0.70;;;;;;;;;;5082555;28;20024;-70
2022/04/26 12:14:27;;;;;;;0.52;0.50;;;;;;;;;;5081905;28;20113;-69
2022/04/26 12:16:56;;;;;;;0.63;0.60;;;;;;;;;;5081764;28;20132;-71
2022/04/26 12:19:35;;;;;;;1.63;0.73;;;;;;;;;;5081467;28;20115;-77
2022/04/26 12:22:00;;;;;;;;;;;;;;;;;;5081882;28;20663;-75
2022/04/26 12:24:27;;;;;;;0.43;0.43;;;;;;;;;;5082365;28;19915;-69
2022/04/26 12:26:55;;;;;;;1.35;0.60;;;;;;;;;;5082026;28;20032;-75
2022/04/26 12:29:21;;;;;;;0.93;0.50;;;;;;;;;;5081257;28;20043;-71
2022/04/26 12:31:50;;;;;;;2.65;0.82;;;;;;;;;;5081951;28;20016;-74
2022/04/26 12:34:15;;;;;;;;;;;;;;;;;;5082207;28;20047;-71
2022/04/26 12:36:54;;;;;;;1.03;0.60;;;;;;;;;;5082510;28;19908;-71
2022/04/26 12:39:20;;;;;;;1.38;0.80;;;;;;;;;;5080803;28;20024;-73
2022/04/26 12:41:46;;;;;;;0.65;0.50;;;;;;;;;;5081999;28;20075;-74
2022/04/26 12:44:11;;;;;;;1.38;0.68;;;;;;;;;;5081881;28;20036;-75
2022/04/26 12:52:37;;;;;;;0.98;0.70;;;;;;;;;;5081979;28;20128;-71
2022/04/26 12:55:02;;;;;;;1.35;0.90;;;;;;;;;;5081865;28;20118;-74
2022/04/26 12:57:28;;;;;;;1.42;0.80;;;;;;;;;;5081477;28;20028;-70
2022/04/26 12:59:53;;;;;;;2.30;0.73;;;;;;;;;;5081095;28;20423;-75
2022/04/26 13:02:19;;;;;;;1.75;0.55;;;;;;;;;;5085834;28;20461;-69
2022/04/26 13:04:44;;;;;;;2.20;0.90;;;;;;;;;;5084334;28;20877;-71
2022/04/26 13:07:09;;;;;;;2.15;0.70;;;;;;;;;;5085367;28;20027;-71
2022/04/26 13:09:35;;;;;;;4.00;0.88;;;;;;;;;;5086068;28;20020;-71
2022/04/26 13:12:00;;;;;;;0.85;0.47;;;;;;;;;;5084897;28;20111;-72
2022/04/26 13:14:27;;;;;;;0.68;0.60;;;;;;;;;;5085850;28;20043;-72
2022/04/26 13:16:52;;;;;;;1.58;0.80;;;;;;;;;;5085079;28;20375;-75
2022/04/26 13:19:18;;;;;;;4.35;0.50;;;;;;;;;;5083989;28;20043;-72
2022/04/26 13:21:43;;;;;;;1.48;0.52;;;;;;;;;;5084568;28;20028;-71
2022/04/26 13:24:08;;;;;;;2.53;0.75;;;;;;;;;;5084184;28;20032;-71
2022/04/26 13:26:35;;;;;;;0.77;0.65;;;;;;;;;;5086021;28;20027;-73
2022/04/26 13:29:01;;;;;;;0.90;0.70;;;;;;;;;;5085894;28;20019;-73
2022/04/26 13:31:26;;;;;;;1.38;0.60;;;;;;;;;;5085365;28;20020;-73
2022/04/26 13:33:51;;;;;;;1.95;0.70;;;;;;;;;;5073762;28;20071;-77
2022/04/26 13:36:17;;;;;;;2.08;1.15;;;;;;;;;;5070274;28;20125;-74
2022/04/26 13:38:43;;;;;;;1.23;0.77;;;;;;;;;;5079601;28;20032;-74
2022/04/26 13:41:09;;;;;;;0.60;0.57;;;;;;;;;;5085696;28;20035;-73
2022/04/26 13:43:34;;;;;;;1.20;0.70;;;;;;;;;;5085596;28;20085;-73
2022/04/26 13:45:59;;;;;;;6.13;2.50;;;;;;;;;;5073794;28;20035;-72
2022/04/26 13:48:26;;;;;;;8.75;5.60;;;;;;;;;;5070983;28;20032;-74
2022/04/26 13:50:51;;;;;;;5.35;3.50;;;;;;;;;;5078202;28;21100;-75
2022/04/26 13:53:16;;;;;;;1.05;0.95;;;;;;;;;;5076108;28;20036;-73
2022/04/26 13:55:42;;;;;;;0.57;0.57;;;;;;;;;;5083907;28;20024;-74
2022/04/26 13:58:09;;;;;;;1.42;0.60;;;;;;;;;;5069794;28;20032;-73
2022/04/26 14:00:36;;;;;;;2.67;0.80;;;;;;;;;;5069980;28;20533;-72
2022/04/26 14:03:01;;;;;;;1.52;0.90;;;;;;;;;;5074231;28;21850;-76
2022/04/26 14:05:27;;;;;;;1.65;1.00;;;;;;;;;;5074911;28;20056;-72
2022/04/26 14:07:52;;;;;;;1.58;0.90;;;;;;;;;;5083493;28;20036;-72
2022/04/26 14:10:18;;;;;;;2.80;0.70;;;;;;;;;;5083069;28;20485;-73
2022/04/26 14:12:43;;;;;;;2.38;0.70;;;;;;;;;;5072699;28;20039;-73
2022/04/26 14:23:20;;;;;;;1.83;1.02;;;;;;;;;;5069639;28;20101;-77
2022/04/26 14:25:46;;;;;;;1.60;0.70;;;;;;;;;;5069309;28;20028;-74
2022/04/26 14:28:11;;;;;;;2.10;1.00;;;;;;;;;;5072667;28;20039;-74
2022/04/26 14:30:36;;;;;;;1.20;0.80;;;;;;;;;;5085003;28;20423;-74
2022/04/26 14:33:02;;;;;;;1.88;0.77;;;;;;;;;;5083919;28;20070;-73
2022/04/26 14:35:29;;;;;;;1.77;1.02;;;;;;;;;;5084664;28;20051;-74
2022/04/26 14:37:54;;;;;;;1.77;0.75;;;;;;;;;;5084260;28;20599;-76
2022/04/26 14:40:20;;;;;;;0.88;0.85;;;;;;;;;;5083440;28;20126;-73
2022/04/26 14:42:46;;;;;;;3.30;0.60;;;;;;;;;;5084002;28;20019;-76
2022/04/26 14:45:12;;;;;;;0.77;0.77;;;;;;;;;;5074566;28;20024;-74
2022/04/26 14:47:37;;;;;;;0.52;0.52;;;;;;;;;;5069447;28;20066;-73
2022/04/26 14:50:04;;;;;;;1.80;0.88;;;;;;;;;;5069529;28;20506;-73
2022/04/26 14:52:30;;;;;;;1.13;0.60;;;;;;;;;;5068396;28;20027;-75
2022/04/26 14:54:57;;;;;;;2.17;0.60;;;;;;;;;;5069613;28;20032;-73
2022/04/26 14:57:22;;;;;;;3.50;0.52;;;;;;;;;;5069130;28;20094;-73
2022/04/26 14:59:48;;;;;;;1.02;0.60;;;;;;;;;;5070188;28;20020;-73
2022/04/26 15:02:17;;;;;;;2.63;0.80;;;;;;;;;;5068700;28;20028;-73
2022/04/26 15:04:43;;;;;;;1.13;0.60;;;;;;;;;;5068643;28;20044;-72
2022/04/26 15:07:08;;;;;;;4.03;0.90;;;;;;;;;;5068245;28;20043;-73
2022/04/26 15:09:43;;;;;;;1.27;0.80;;;;;;;;;;5069468;28;20016;-75
2022/04/26 15:17:41;;;;;;;2.50;0.70;;;;;;;;;;5073616;28;20374;-74
2022/04/26 15:20:07;;;;;;;2.08;0.85;;;;;;;;;;5082871;28;20015;-74
2022/04/26 15:22:32;;;;;;;4.82;0.77;;;;;;;;;;5082726;28;20023;-74
2022/04/26 15:24:58;;;;;;;1.35;0.70;;;;;;;;;;5067481;28;20034;-78
2022/04/26 15:27:23;;;;;;;1.83;0.70;;;;;;;;;;5077663;28;20495;-75
2022/04/26 15:29:48;;;;;;;1.73;0.95;;;;;;;;;;5074356;28;20035;-76
2022/04/26 15:32:14;;;;;;;1.33;0.73;;;;;;;;;;5075644;28;20047;-75
2022/04/26 15:34:40;;;;;;;1.33;0.90;;;;;;;;;;5082490;28;20127;-76
2022/04/26 15:37:06;;;;;;;1.13;0.60;;;;;;;;;;5078034;28;20026;-74
2022/04/26 15:39:31;;;;;;;1.45;1.10;;;;;;;;;;5082455;28;20519;-74
2022/04/26 15:41:57;;;;;;;3.00;1.10;;;;;;;;;;5074771;28;20023;-75
2022/04/26 15:44:23;;;;;;;1.95;0.90;;;;;;;;;;5079478;28;20024;-76
2022/04/26 15:46:52;;;;;;;0.90;0.70;;;;;;;;;;5082481;28;20016;-75
2022/04/26 15:49:20;;;;;;;1.63;1.00;;;;;;;;;;5082908;28;20101;-75
2022/04/26 15:51:47;;;;;;;0.82;0.70;;;;;;;;;;5083245;28;20063;-74
2022/04/26 15:54:14;;;;;;;2.50;1.00;;;;;;;;;;5083054;28;20032;-75
2022/04/26 15:56:41;;;;;;;3.33;0.68;;;;;;;;;;5082469;28;20370;-75
2022/04/26 15:59:07;;;;;;;3.45;0.90;;;;;;;;;;5082634;28;20035;-74
2022/04/26 16:01:32;;;;;;;1.15;0.70;;;;;;;;;;5081832;28;20020;-74
2022/04/26 16:03:57;;;;;;;1.27;0.80;;;;;;;;;;5082141;28;20036;-73
2022/04/26 16:06:23;;;;;;;0.98;0.70;;;;;;;;;;5080493;28;20020;-74
2022/04/26 16:08:48;;;;;;;2.13;1.10;;;;;;;;;;5071081;28;20103;-77
2022/04/26 16:22:10;;;;;;;2.28;0.85;;;;;;;;;;5082484;28;20043;-74
2022/04/26 16:24:41;;;;;;;1.90;1.00;;;;;;;;;;5082126;28;20115;-75
2022/04/26 16:27:07;;;;;;;10.65;1.30;;;;;;;;;;5080275;28;20020;-74
2022/04/26 16:29:33;;;;;;;3.20;1.10;;;;;;;;;;5066334;28;20090;-76
2022/04/26 16:31:58;;;;;;;2.15;1.30;;;;;;;;;;5077983;28;20028;-73
2022/04/26 16:34:23;;;;;;;1.38;0.68;;;;;;;;;;5082486;28;20100;-73
2022/04/26 16:36:49;;;;;;;2.55;1.60;;;;;;;;;;5082247;28;20038;-71
2022/04/26 16:39:14;;;;;;;5.63;4.40;;;;;;;;;;5082079;28;20063;-70
2022/04/26 16:41:39;;;;;;;8.05;3.60;;;;;;;;;;5081338;28;20078;-70
2022/04/26 16:44:06;;;;;;;4.20;2.20;;;;;;;;;;5081890;28;20019;-71
2022/04/26 16:46:32;;;;;;;3.67;1.08;;;;;;;;;;5081956;28;20027;-73
2022/04/26 16:48:58;;;;;;;1.90;0.77;;;;;;;;;;5080835;28;20024;-72
2022/04/26 16:51:25;;;;;;;2.75;1.00;;;;;;;;;;5081785;28;20059;-69
2022/04/26 16:53:50;;;;;;;2.83;1.05;;;;;;;;;;5080190;28;20428;-71
2022/04/26 16:56:15;;;;;;;4.60;1.90;;;;;;;;;;5081772;28;20074;-76
2022/04/26 16:58:41;;;;;;;3.60;1.90;;;;;;;;;;5082548;28;20024;-74
2022/04/26 17:01:07;;;;;;;4.70;1.95;;;;;;;;;;5080375;28;20019;-70
2022/04/26 17:03:32;;;;;;;4.90;1.73;;;;;;;;;;5082212;28;20032;-70
2022/04/26 17:05:58;;;;;;;1.90;1.58;;;;;;;;;;5080933;28;20047;-71
2022/04/26 17:08:23;;;;;;;2.88;1.48;;;;;;;;;;5081865;28;20432;-75
2022/04/26 17:10:48;;;;;;;2.97;1.77;;;;;;;;;;5081699;28;20023;-71
2022/04/26 17:13:14;;;;;;;2.15;1.50;;;;;;;;;;5081581;28;20101;-69
2022/04/26 17:15:40;;;;;;;3.45;2.25;;;;;;;;;;5081699;28;20439;-71
2022/04/26 17:18:08;;;;;;;3.40;1.95;;;;;;;;;;5081171;28;20030;-71
2022/04/26 17:20:34;;;;;;;3.88;3.13;;;;;;;;;;5080534;28;20028;-70
2022/04/26 17:23:00;;;;;;;4.18;2.60;;;;;;;;;;5081770;28;20043;-73
2022/04/26 17:25:26;;;;;;;5.93;3.10;;;;;;;;;;5080727;28;20031;-71
2022/04/26 17:27:52;;;;;;;5.70;2.50;;;;;;;;;;5081744;28;20022;-69
2022/04/26 17:30:18;;;;;;;4.18;2.00;;;;;;;;;;5081028;28;20032;-72
2022/04/26 17:32:43;;;;;;;3.03;2.00;;;;;;;;;;5080772;28;20024;-69
2022/04/26 17:35:09;;;;;;;2.72;1.88;;;;;;;;;;5080313;28;20417;-68
2022/04/26 17:37:37;;;;;;;3.80;1.88;;;;;;;;;;5080157;28;20024;-69
2022/04/26 17:40:03;;;;;;;4.53;1.83;;;;;;;;;;5069055;28;20100;-68
2022/04/26 17:42:28;;;;;;;5.07;2.15;;;;;;;;;;5079873;28;20028;-69
2022/04/26 17:44:54;;;;;;;10.57;3.33;;;;;;;;;;5080664;28;20032;-73
2022/04/26 17:47:19;;;;;;;4.95;3.20;;;;;;;;;;5083120;28;20035;-69
2022/04/26 17:49:46;;;;;;;5.05;3.72;;;;;;;;;;5084473;28;20138;-66
2022/04/26 17:52:12;;;;;;;12.07;6.22;;;;;;;;;;5084734;28;20016;-70
2022/04/26 17:57:21;;;;;;;14.45;10.65;;;;;;;;;;5080447;28;20035;-68
2022/04/26 17:59:47;;;;;;;9.95;6.75;;;;;;;;;;5069778;28;20028;-71
2022/04/26 18:02:12;;;;;;;3.58;3.20;;;;;;;;;;5071794;28;20080;-71
2022/04/26 18:04:38;;;;;;;4.80;2.40;;;;;;;;;;5082741;28;20056;-69
2022/04/26 18:07:04;;;;;;;8.52;3.10;;;;;;;;;;5079877;28;20165;-73
2022/04/26 18:09:29;;;;;;;4.70;2.95;;;;;;;;;;5072407;28;20146;-76
2022/04/26 18:11:55;;;;;;;6.35;3.25;;;;;;;;;;5068844;28;20024;-72
2022/04/26 18:14:21;;;;;;;7.60;4.95;;;;;;;;;;5069985;28;20344;-72
2022/04/26 18:16:46;;;;;;;10.60;4.90;;;;;;;;;;5073996;28;20031;-70
2022/04/26 18:19:12;;;;;;;19.85;10.15;;;;;;;;;;5070052;28;20048;-70
2022/04/26 18:21:37;;;;;;;14.70;8.52;;;;;;;;;;5073022;28;20028;-73
2022/04/26 18:24:03;;;;;;;9.65;5.72;;;;;;;;;;5076048;28;20027;-76
2022/04/26 18:26:28;;;;;;;7.18;5.10;;;;;;;;;;5078026;28;20028;-71
2022/04/26 18:28:57;;;;;;;8.65;5.07;;;;;;;;;;5078881;28;20035;-69
2022/04/26 18:31:24;;;;;;;8.65;7.30;;;;;;;;;;5076711;28;20024;-68
2022/04/26 18:33:50;;;;;;;4.70;3.53;;;;;;;;;;5063765;28;20060;-74
2022/04/26 18:36:18;;;;;;;4.53;2.88;;;;;;;;;;5081932;28;20028;-73
2022/04/26 18:38:54;;;;;;;5.15;3.08;;;;;;;;;;5081559;28;20578;-68
2022/04/26 18:41:20;;;;;;;4.72;2.45;;;;;;;;;;5084237;28;20083;-70
2022/04/26 18:43:47;;;;;;;6.50;2.35;;;;;;;;;;5083133;28;20023;-70
2022/04/26 18:46:13;;;;;;;3.53;1.73;;;;;;;;;;5084063;28;20081;-73
2022/04/26 18:48:38;;;;;;;2.78;2.38;;;;;;;;;;5083251;28;20389;-74
2022/04/26 18:51:04;;;;;;;3.58;1.95;;;;;;;;;;5083049;28;20027;-70
2022/04/26 18:53:30;;;;;;;5.38;1.40;;;;;;;;;;5082536;28;20050;-69
2022/04/26 18:55:56;;;;;;;2.70;1.25;;;;;;;;;;5084522;28;20103;-72
2022/04/26 18:58:23;;;;;;;5.25;4.80;;;;;;;;;;5081850;28;20435;-73
2022/04/26 19:00:50;;;;;;;6.18;4.78;;;;;;;;;;5084334;28;20027;-71
2022/04/26 19:03:16;;;;;;;10.10;6.68;;;;;;;;;;5083772;28;20370;-71